Terminal Aerodrome Forecast
Issued by NWS Austin/San Antonio, TX

Current Version | Previous Version | Text Only | Print | Product List | Glossary Off
Versions: 1 2 3 4 5 6 7 8 9 10 11 12 13 14 15 16

000
FTUS44 KEWX 291720
TAFSAT
TAF
KSAT 291720Z 2918/3024 15010KT P6SM FEW070
     FM300900 21004KT P6SM SCT015
     FM301800 15007KT P6SM FEW070=

USA.gov is the U.S. government's official web portal to all federal, state and local government web resources and services.